Time;durP1;ratioP1;P1;durP2;ratioP2;P2;SDS_P1;SDS_P2;PMS_P1;PMS_P2;Temp;Humidity;BMP_temperature;BMP_pressure;BME280_temperature;BME280_humidity;BME280_pressure;Samples;Min_cycle;Max_cycle;Signal;HPM_P1;HPM_P2
2022/12/14 00:01:35;;;;;;;;;;;23.50;25.90;;;;;;5054597;28;20322;-69
2022/12/14 00:04:00;;;;;;;;;;;23.50;25.80;;;;;;5054174;28;19924;-69
2022/12/14 00:06:27;;;;;;;;;;;23.50;25.80;;;;;;5072154;28;20388;-69
2022/12/14 00:08:54;;;;;;;;;;;23.50;25.80;;;;;;5054346;28;20390;-68
2022/12/14 00:11:21;;;;;;;;;;;23.40;25.80;;;;;;5054482;28;19927;-71
2022/12/14 00:13:50;;;;;;;;;;;23.40;25.80;;;;;;5072182;28;20007;-70
2022/12/14 00:16:16;;;;;;;;;;;23.40;25.90;;;;;;5054474;28;19921;-69
2022/12/14 00:18:41;;;;;;;;;;;23.30;25.90;;;;;;5054126;28;20390;-69
2022/12/14 00:21:08;;;;;;;;;;;23.20;26.00;;;;;;5054317;28;20015;-69
2022/12/14 00:23:34;;;;;;;;;;;23.10;26.00;;;;;;5054016;28;20399;-69
2022/12/14 00:28:48;;;;;;;;;;;23.00;26.20;;;;;;5110355;27;19912;-68
2022/12/14 00:31:14;;;;;;;;;;;22.90;26.20;;;;;;5108835;28;19920;-69
2022/12/14 00:33:39;;;;;;;;;;;22.90;26.30;;;;;;5110215;28;19949;-69
2022/12/14 00:36:06;;;;;;;;;;;22.80;26.40;;;;;;5109051;28;19920;-68
2022/12/14 00:38:31;;;;;;;;;;;22.70;26.40;;;;;;5109143;28;20287;-68
2022/12/14 00:40:57;;;;;;;;;;;22.60;26.40;;;;;;5108729;28;19920;-69
2022/12/14 00:43:23;;;;;;;;;;;22.60;26.40;;;;;;5109032;28;19942;-69
2022/12/14 00:45:49;;;;;;;;;;;22.60;26.50;;;;;;5108982;28;19920;-70
2022/12/14 00:48:16;;;;;;;;;;;22.60;26.50;;;;;;5142761;27;20311;-70
2022/12/14 00:50:43;;;;;;;;;;;22.60;26.50;;;;;;5109512;28;20372;-68
2022/12/14 00:53:08;;;;;;;;;;;22.60;26.40;;;;;;5109881;28;20040;-69
2022/12/14 00:55:38;;;;;;;;;;;22.60;26.40;;;;;;5109917;28;19959;-69
2022/12/14 00:58:04;;;;;;;;;;;22.60;26.50;;;;;;5108768;28;19959;-69
2022/12/14 01:00:29;;;;;;;;;;;22.60;26.50;;;;;;5108642;28;20388;-69
2022/12/14 01:02:55;;;;;;;;;;;22.60;26.50;;;;;;5108408;28;20444;-69
2022/12/14 01:05:20;;;;;;;;;;;22.60;26.50;;;;;;5108499;28;19920;-69
2022/12/14 01:07:46;;;;;;;;;;;22.60;26.50;;;;;;5109457;28;20394;-69
2022/12/14 01:10:11;;;;;;;;;;;22.60;26.40;;;;;;5108228;28;19920;-68
2022/12/14 01:12:37;;;;;;;;;;;22.60;26.30;;;;;;5109402;28;19927;-69
2022/12/14 01:15:03;;;;;;;;;;;22.70;26.30;;;;;;5109384;28;19942;-68
2022/12/14 01:17:28;;;;;;;;;;;22.80;26.40;;;;;;5108314;28;19926;-70
2022/12/14 01:19:54;;;;;;;;;;;22.80;26.40;;;;;;5109329;28;19944;-70
2022/12/14 01:22:19;;;;;;;;;;;22.80;26.30;;;;;;5107868;28;19976;-69
2022/12/14 01:24:45;;;;;;;;;;;22.80;26.20;;;;;;5109188;28;19972;-69
2022/12/14 01:27:10;;;;;;;;;;;22.90;26.20;;;;;;5115959;28;19976;-69
2022/12/14 01:29:36;;;;;;;;;;;22.90;26.10;;;;;;5129605;28;19977;-69
2022/12/14 01:32:01;;;;;;;;;;;22.90;26.10;;;;;;5111044;28;19927;-69
2022/12/14 01:34:27;;;;;;;;;;;22.90;26.10;;;;;;5111521;28;20116;-71
2022/12/14 01:36:52;;;;;;;;;;;22.90;26.10;;;;;;5111196;28;20402;-69
2022/12/14 01:39:18;;;;;;;;;;;22.90;26.10;;;;;;5102324;28;20379;-70
2022/12/14 01:41:46;;;;;;;;;;;22.80;26.10;;;;;;5115792;28;19967;-69
2022/12/14 01:46:57;;;;;;;;;;;22.70;26.10;;;;;;5089831;28;19913;-69
2022/12/14 01:49:40;;;;;;;;;;;22.70;26.10;;;;;;5088515;28;19978;-69
2022/12/14 01:52:07;;;;;;;;;;;22.70;26.20;;;;;;5088426;28;20372;-69
2022/12/14 01:54:35;;;;;;;;;;;22.60;26.20;;;;;;5089791;28;20388;-70
2022/12/14 01:57:01;;;;;;;;;;;22.70;26.20;;;;;;5088491;28;19925;-69
2022/12/14 01:59:29;;;;;;;;;;;22.60;26.20;;;;;;5088600;28;19928;-68
2022/12/14 02:01:56;;;;;;;;;;;22.60;26.20;;;;;;5088413;28;19924;-68
2022/12/14 02:04:22;;;;;;;;;;;22.60;26.20;;;;;;5088095;28;19924;-69
2022/12/14 02:06:49;;;;;;;;;;;22.60;26.20;;;;;;5071401;28;19928;-69
2022/12/14 02:09:17;;;;;;;;;;;22.60;26.20;;;;;;5088432;28;19982;-69
2022/12/14 02:11:48;;;;;;;;;;;22.60;26.20;;;;;;5089473;28;20337;-69
2022/12/14 02:14:13;;;;;;;;;;;22.60;26.20;;;;;;5089352;28;19944;-69
2022/12/14 02:16:39;;;;;;;;;;;22.50;26.10;;;;;;5089351;28;20079;-69
2022/12/14 02:19:05;;;;;;;;;;;22.60;26.20;;;;;;5089226;28;20375;-71
2022/12/14 02:21:50;;;;;;;;;;;22.50;26.10;;;;;;5089297;28;20011;-71
2022/12/14 02:32:29;;;;;;;;;;;22.60;26.10;;;;;;5089962;28;19912;-68
2022/12/14 02:34:58;;;;;;;;;;;22.50;26.10;;;;;;5087965;28;19921;-68
2022/12/14 02:37:43;;;;;;;;;;;22.60;26.10;;;;;;5088292;28;19963;-71
2022/12/14 02:40:29;;;;;;;;;;;22.50;26.00;;;;;;5088517;28;19970;-69
2022/12/14 02:43:00;;;;;;;;;;;22.50;26.10;;;;;;5088450;28;19920;-69
2022/12/14 02:45:31;;;;;;;;;;;22.50;26.10;;;;;;5088332;28;20380;-71
2022/12/14 02:48:02;;;;;;;;;;;22.40;26.10;;;;;;5088722;28;20090;-69
2022/12/14 02:55:48;;;;;;;;;;;22.40;26.20;;;;;;5110263;27;19940;-69
2022/12/14 02:58:18;;;;;;;;;;;22.40;26.20;;;;;;5108341;28;19920;-68
2022/12/14 03:00:44;;;;;;;;;;;22.40;26.00;;;;;;5108580;28;19944;-71
2022/12/14 03:03:10;;;;;;;;;;;22.40;26.00;;;;;;5109106;28;19967;-71
2022/12/14 03:05:35;;;;;;;;;;;22.40;26.00;;;;;;5109055;28;20356;-69
2022/12/14 03:08:04;;;;;;;;;;;22.50;26.00;;;;;;5108727;28;19920;-69
2022/12/14 03:16:25;;;;;;;;;;;22.60;25.90;;;;;;5110194;27;19912;-71
2022/12/14 03:21:41;;;;;;;;;;;22.60;25.80;;;;;;5110257;27;20286;-71
2022/12/14 03:24:11;;;;;;;;;;;22.60;25.80;;;;;;5110196;28;19919;-69
2022/12/14 03:26:55;;;;;;;;;;;22.60;25.80;;;;;;5109052;28;20367;-69
2022/12/14 03:29:23;;;;;;;;;;;22.60;25.70;;;;;;5109218;28;19927;-71
2022/12/14 03:31:53;;;;;;;;;;;22.60;25.80;;;;;;5108792;28;20379;-71
2022/12/14 03:34:22;;;;;;;;;;;22.60;25.80;;;;;;5108794;28;19926;-69
2022/12/14 03:36:51;;;;;;;;;;;22.60;25.80;;;;;;5108303;28;19928;-71
2022/12/14 03:39:20;;;;;;;;;;;22.60;25.80;;;;;;5108426;28;20421;-69
2022/12/14 03:49:57;;;;;;;;;;;22.50;25.80;;;;;;5089931;28;19912;-70
2022/12/14 03:52:27;;;;;;;;;;;22.50;25.80;;;;;;5088840;28;19943;-71
2022/12/14 03:54:59;;;;;;;;;;;22.50;25.80;;;;;;5088612;28;20376;-71
2022/12/14 03:57:40;;;;;;;;;;;22.50;25.90;;;;;;5088386;28;20007;-69
2022/12/14 04:00:07;;;;;;;;;;;22.50;25.90;;;;;;5088760;28;19935;-69
2022/12/14 04:02:41;;;;;;;;;;;22.50;25.90;;;;;;5088404;28;19950;-69
2022/12/14 04:05:11;;;;;;;;;;;22.40;25.80;;;;;;5088417;28;19966;-69
2022/12/14 04:18:59;;;;;;;;;;;22.40;25.70;;;;;;5108924;28;19920;-69
2022/12/14 04:21:28;;;;;;;;;;;22.40;26.00;;;;;;5108815;28;20010;-71
2022/12/14 04:26:45;;;;;;;;;;;22.40;25.70;;;;;;5108967;28;20340;-71
2022/12/14 04:32:03;;;;;;;;;;;22.50;25.70;;;;;;5108469;28;19967;-69
2022/12/14 04:34:29;;;;;;;;;;;22.50;25.60;;;;;;5108581;28;19963;-69
2022/12/14 04:36:56;;;;;;;;;;;22.50;25.60;;;;;;5109857;28;19942;-69
2022/12/14 04:39:29;;;;;;;;;;;22.40;25.50;;;;;;5108390;28;19926;-69
2022/12/14 04:41:57;;;;;;;;;;;22.40;25.50;;;;;;5108410;28;19966;-69
2022/12/14 04:44:25;;;;;;;;;;;22.40;25.60;;;;;;5108280;28;19920;-69
2022/12/14 04:46:52;;;;;;;;;;;22.50;25.60;;;;;;5108614;28;19920;-71
2022/12/14 04:49:19;;;;;;;;;;;22.50;25.60;;;;;;5109546;28;19969;-70
2022/12/14 04:51:49;;;;;;;;;;;22.50;25.50;;;;;;5109837;28;20313;-69
2022/12/14 04:57:03;;;;;;;;;;;22.50;25.50;;;;;;5127992;27;1853366;-69
2022/12/14 04:59:28;;;;;;;;;;;22.50;25.50;;;;;;5174338;27;19925;-68
2022/12/14 05:01:57;;;;;;;;;;;22.50;25.40;;;;;;5174676;27;19919;-69
2022/12/14 05:04:28;;;;;;;;;;;22.50;25.40;;;;;;5174587;27;19992;-69
2022/12/14 05:15:11;;;;;;;;;;;22.60;25.50;;;;;;5089821;28;20372;-71
2022/12/14 05:17:37;;;;;;;;;;;22.60;25.40;;;;;;5088915;28;20269;-68
2022/12/14 05:20:03;;;;;;;;;;;22.60;25.40;;;;;;5088754;28;19966;-68
2022/12/14 05:22:29;;;;;;;;;;;22.60;25.30;;;;;;5088489;28;19947;-69
2022/12/14 05:24:54;;;;;;;;;;;22.80;25.30;;;;;;5088611;28;19921;-68
2022/12/14 05:27:20;;;;;;;;;;;22.80;25.20;;;;;;5088401;28;19965;-71
2022/12/14 05:29:45;;;;;;;;;;;22.90;25.10;;;;;;5088304;28;19970;-69
2022/12/14 05:32:12;;;;;;;;;;;22.90;25.10;;;;;;5088227;28;19932;-69
2022/12/14 05:34:37;;;;;;;;;;;22.90;25.10;;;;;;5088274;28;19924;-69
2022/12/14 05:37:03;;;;;;;;;;;23.00;25.00;;;;;;5088500;28;19946;-70
2022/12/14 05:39:29;;;;;;;;;;;23.00;25.00;;;;;;5089401;28;19946;-68
2022/12/14 05:41:54;;;;;;;;;;;23.00;24.90;;;;;;5089540;28;19925;-70
2022/12/14 05:44:20;;;;;;;;;;;23.00;24.90;;;;;;5089323;28;20058;-69
2022/12/14 05:46:45;;;;;;;;;;;23.00;24.90;;;;;;5088291;28;19974;-70
2022/12/14 05:49:11;;;;;;;;;;;23.00;24.90;;;;;;5088285;28;19966;-70
2022/12/14 05:51:37;;;;;;;;;;;23.00;24.90;;;;;;5089203;28;20398;-69
2022/12/14 05:54:02;;;;;;;;;;;23.00;24.90;;;;;;5087932;28;20011;-69
2022/12/14 05:56:28;;;;;;;;;;;22.90;24.90;;;;;;5088024;28;20015;-68
2022/12/14 05:58:53;;;;;;;;;;;23.00;24.80;;;;;;5088127;28;19920;-69
2022/12/14 06:01:19;;;;;;;;;;;23.00;24.80;;;;;;5089066;28;20394;-70
2022/12/14 06:03:45;;;;;;;;;;;23.00;25.40;;;;;;5088935;28;19924;-68
2022/12/14 06:06:11;;;;;;;;;;;23.00;24.80;;;;;;5088918;28;19927;-68
2022/12/14 06:08:38;;;;;;;;;;;23.00;24.70;;;;;;5087713;28;19974;-70
2022/12/14 06:11:05;;;;;;;;;;;23.00;24.70;;;;;;5088952;28;19920;-68
2022/12/14 06:13:30;;;;;;;;;;;22.90;24.70;;;;;;5087373;28;19924;-69
2022/12/14 06:16:05;;;;;;;;;;;22.90;24.70;;;;;;5087418;28;20007;-68
2022/12/14 06:18:31;;;;;;;;;;;22.90;24.70;;;;;;5087470;28;19956;-69
2022/12/14 06:20:57;;;;;;;;;;;22.90;24.70;;;;;;5087335;28;19920;-70
2022/12/14 06:23:23;;;;;;;;;;;22.90;24.70;;;;;;5087653;28;19921;-68
2022/12/14 06:25:53;;;;;;;;;;;22.80;24.70;;;;;;5076892;28;20036;-68
2022/12/14 06:28:18;;;;;;;;;;;22.90;24.70;;;;;;5073781;28;19921;-68
2022/12/14 06:30:45;;;;;;;;;;;22.90;24.60;;;;;;5073987;28;19935;-69
2022/12/14 06:33:11;;;;;;;;;;;22.90;24.60;;;;;;5073309;28;20423;-68
2022/12/14 06:35:41;;;;;;;;;;;22.90;24.60;;;;;;5071922;28;19946;-67
2022/12/14 06:38:06;;;;;;;;;;;22.80;24.70;;;;;;5073812;28;19924;-63
2022/12/14 06:40:32;;;;;;;;;;;22.60;25.20;;;;;;5072630;28;20291;-68
2022/12/14 06:42:57;;;;;;;;;;;22.20;25.50;;;;;;5070942;28;20894;-68
2022/12/14 06:45:23;;;;;;;;;;;21.90;25.90;;;;;;5070395;28;19921;-70
2022/12/14 06:47:49;;;;;;;;;;;21.80;26.00;;;;;;5067972;28;20437;-64
2022/12/14 06:50:14;;;;;;;;;;;21.90;26.10;;;;;;5068414;28;20299;-64
2022/12/14 06:52:40;;;;;;;;;;;22.10;25.90;;;;;;5044181;28;19924;-63
2022/12/14 06:55:06;;;;;;;;;;;22.20;25.90;;;;;;5059501;28;20468;-66
2022/12/14 06:57:31;;;;;;;;;;;22.20;25.80;;;;;;5058883;28;19932;-67
2022/12/14 06:59:56;;;;;;;;;;;22.30;26.00;;;;;;5055125;28;19927;-70
2022/12/14 07:02:22;;;;;;;;;;;22.30;26.00;;;;;;5071242;28;20232;-67
2022/12/14 07:04:47;;;;;;;;;;;22.40;26.00;;;;;;5059431;28;20296;-65
2022/12/14 07:07:13;;;;;;;;;;;22.40;26.00;;;;;;5062860;28;19929;-69
2022/12/14 07:09:38;;;;;;;;;;;22.40;26.00;;;;;;5061871;28;20012;-63
2022/12/14 07:12:04;;;;;;;;;;;22.50;25.50;;;;;;5061351;28;20054;-70
2022/12/14 07:14:30;;;;;;;;;;;22.50;25.60;;;;;;5055964;28;20436;-66
2022/12/14 07:16:55;;;;;;;;;;;22.70;25.60;;;;;;5046518;28;19927;-68
2022/12/14 07:19:20;;;;;;;;;;;23.00;25.50;;;;;;5052538;28;19935;-69
2022/12/14 07:21:46;;;;;;;;;;;23.30;25.40;;;;;;5051814;28;19927;-69
2022/12/14 07:24:12;;;;;;;;;;;23.60;25.30;;;;;;5053564;28;19947;-69
2022/12/14 07:26:37;;;;;;;;;;;23.60;25.20;;;;;;5041247;28;19967;-69
2022/12/14 07:29:03;;;;;;;;;;;23.60;25.30;;;;;;5046230;28;19959;-68
2022/12/14 07:31:28;;;;;;;;;;;23.40;25.20;;;;;;5047623;28;19921;-68
2022/12/14 07:33:55;;;;;;;;;;;22.90;25.10;;;;;;5045855;28;19958;-69
2022/12/14 07:36:21;;;;;;;;;;;22.40;25.20;;;;;;5046903;28;20604;-65
2022/12/14 07:38:47;;;;;;;;;;;22.10;25.40;;;;;;5048666;28;19959;-70
2022/12/14 07:41:14;;;;;;;;;;;22.10;25.60;;;;;;5048830;28;19925;-73
2022/12/14 07:43:40;;;;;;;;;;;22.10;25.60;;;;;;5047231;28;19960;-70
2022/12/14 07:46:07;;;;;;;;;;;22.10;25.70;;;;;;5064866;28;20388;-69
2022/12/14 07:48:33;;;;;;;;;;;22.20;25.70;;;;;;5052119;28;19925;-70
2022/12/14 07:51:15;;;;;;;;;;;22.40;25.70;;;;;;5050722;28;19995;-68
2022/12/14 07:53:41;;;;;;;;;;;22.60;25.60;;;;;;5048583;28;20315;-68
2022/12/14 07:56:07;;;;;;;;;;;22.80;25.40;;;;;;5048246;28;19950;-71
2022/12/14 07:58:33;;;;;;;;;;;22.90;25.40;;;;;;5049344;28;19929;-69
2022/12/14 08:01:07;;;;;;;;;;;22.90;25.30;;;;;;5048005;28;20008;-68
2022/12/14 08:03:33;;;;;;;;;;;23.00;25.30;;;;;;5047068;28;19925;-69
2022/12/14 08:06:01;;;;;;;;;;;23.10;25.20;;;;;;5048618;28;19982;-71
2022/12/14 08:08:27;;;;;;;;;;;23.10;25.20;;;;;;5053466;28;19921;-70
2022/12/14 08:10:52;;;;;;;;;;;23.10;25.30;;;;;;5045203;28;20562;-69
2022/12/14 08:13:18;;;;;;;;;;;23.10;25.10;;;;;;5047496;28;19935;-70
2022/12/14 08:15:43;;;;;;;;;;;23.00;25.10;;;;;;5045449;28;19921;-70
2022/12/14 08:18:09;;;;;;;;;;;22.90;25.20;;;;;;5066468;28;19924;-70
2022/12/14 08:20:35;;;;;;;;;;;22.70;25.20;;;;;;5050309;28;20412;-68
2022/12/14 08:23:00;;;;;;;;;;;22.60;25.40;;;;;;5066332;28;19962;-68
2022/12/14 08:25:26;;;;;;;;;;;22.50;25.50;;;;;;5048518;28;20429;-68
2022/12/14 08:27:51;;;;;;;;;;;22.40;25.60;;;;;;5064419;28;19929;-70
2022/12/14 08:30:17;;;;;;;;;;;22.30;25.60;;;;;;5051659;28;19920;-70
2022/12/14 08:32:42;;;;;;;;;;;22.30;25.70;;;;;;5044021;28;20010;-71
2022/12/14 08:35:08;;;;;;;;;;;22.20;25.70;;;;;;5055513;28;19935;-67
2022/12/14 08:37:34;;;;;;;;;;;22.10;25.80;;;;;;5051400;28;19975;-71
2022/12/14 08:39:59;;;;;;;;;;;22.00;25.90;;;;;;5063608;28;19924;-70
2022/12/14 08:42:25;;;;;;;;;;;22.10;26.10;;;;;;5048719;28;20300;-70
2022/12/14 08:44:50;;;;;;;;;;;22.20;26.10;;;;;;5044836;28;19931;-68
2022/12/14 08:47:16;;;;;;;;;;;22.30;26.10;;;;;;5049873;28;19954;-66
2022/12/14 08:49:41;;;;;;;;;;;22.40;26.00;;;;;;5046022;28;19928;-69
2022/12/14 08:52:08;;;;;;;;;;;22.60;25.90;;;;;;5050075;28;19924;-70
2022/12/14 08:54:34;;;;;;;;;;;22.70;25.80;;;;;;5050562;28;19989;-71
2022/12/14 08:56:59;;;;;;;;;;;22.80;25.80;;;;;;5051896;28;19929;-71
2022/12/14 08:59:26;;;;;;;;;;;22.80;25.70;;;;;;5061222;28;19924;-70
2022/12/14 09:01:51;;;;;;;;;;;22.80;25.70;;;;;;5043970;28;19931;-70
2022/12/14 09:04:17;;;;;;;;;;;22.90;25.60;;;;;;5043629;28;19921;-65
2022/12/14 09:06:42;;;;;;;;;;;22.80;25.60;;;;;;5069908;28;19935;-71
2022/12/14 09:09:08;;;;;;;;;;;22.70;25.60;;;;;;5068642;28;19936;-68
2022/12/14 09:11:33;;;;;;;;;;;22.70;25.80;;;;;;5069229;28;19980;-67
2022/12/14 09:13:59;;;;;;;;;;;22.80;25.90;;;;;;5047647;28;19933;-68
2022/12/14 09:16:25;;;;;;;;;;;23.20;25.80;;;;;;5051284;28;19931;-71
2022/12/14 09:18:50;;;;;;;;;;;23.50;25.50;;;;;;5050852;28;19942;-68
2022/12/14 09:21:16;;;;;;;;;;;24.00;25.30;;;;;;5050611;28;20632;-68
2022/12/14 09:23:42;;;;;;;;;;;24.50;25.10;;;;;;5048855;28;20015;-70
2022/12/14 09:26:11;;;;;;;;;;;24.60;24.60;;;;;;5052834;28;20044;-69
2022/12/14 09:28:37;;;;;;;;;;;24.60;24.50;;;;;;5049896;28;19934;-69
2022/12/14 09:31:04;;;;;;;;;;;24.80;24.40;;;;;;5050657;28;20312;-69
2022/12/14 09:33:30;;;;;;;;;;;24.90;24.20;;;;;;5046750;28;19932;-70
2022/12/14 09:36:00;;;;;;;;;;;25.10;24.20;;;;;;5062674;28;19928;-70
2022/12/14 09:38:26;;;;;;;;;;;24.90;24.20;;;;;;5050171;28;20045;-69
2022/12/14 09:40:55;;;;;;;;;;;24.60;24.40;;;;;;5047445;28;20916;-69
2022/12/14 09:43:28;;;;;;;;;;;24.20;24.70;;;;;;5052010;28;20315;-73
2022/12/14 09:45:55;;;;;;;;;;;23.90;25.00;;;;;;5053703;28;19929;-70
2022/12/14 09:48:23;;;;;;;;;;;23.70;25.30;;;;;;5047438;28;19931;-73
2022/12/14 09:50:50;;;;;;;;;;;23.60;25.50;;;;;;5037817;28;19936;-70
2022/12/14 09:53:17;;;;;;;;;;;23.50;25.60;;;;;;5045307;28;19956;-72
2022/12/14 09:55:45;;;;;;;;;;;23.40;25.80;;;;;;5049934;28;19973;-71
2022/12/14 09:58:14;;;;;;;;;;;23.30;26.10;;;;;;5055124;28;20011;-70
2022/12/14 10:00:43;;;;;;;;;;;23.20;26.30;;;;;;5050010;28;19924;-70
2022/12/14 10:03:28;;;;;;;;;;;23.40;26.50;;;;;;5049624;28;19939;-68
2022/12/14 10:06:14;;;;;;;;;;;23.50;26.40;;;;;;5069149;28;20474;-72
2022/12/14 10:08:45;;;;;;;;;;;23.60;26.20;;;;;;5062273;28;19924;-76
2022/12/14 10:11:30;;;;;;;;;;;23.90;26.00;;;;;;5057400;28;20299;-67
2022/12/14 10:16:55;;;;;;;;;;;24.10;25.50;;;;;;5092661;27;1892714;-68
2022/12/14 10:22:12;;;;;;;;;;;24.50;25.50;;;;;;5067023;28;19921;-68
2022/12/14 10:24:41;;;;;;;;;;;24.90;25.30;;;;;;5080932;28;19925;-68
2022/12/14 10:27:07;;;;;;;;;;;25.20;25.20;;;;;;5081787;28;19934;-73
2022/12/14 10:29:38;;;;;;;;;;;25.40;24.90;;;;;;5067262;28;19928;-68
2022/12/14 10:34:51;;;;;;;;;;;25.70;24.70;;;;;;5049409;28;19921;-70
2022/12/14 10:37:22;;;;;;;;;;;25.50;24.60;;;;;;5045975;28;20394;-72
2022/12/14 10:42:55;;;;;;;;;;;25.20;25.20;;;;;;5074093;27;20291;-67
2022/12/14 10:45:41;;;;;;;;;;;25.10;25.30;;;;;;5067343;28;19956;-68
2022/12/14 10:50:55;;;;;;;;;;;24.90;25.50;;;;;;5070062;27;1859873;-70
2022/12/14 10:53:24;;;;;;;;;;;24.70;25.80;;;;;;5128859;27;19927;-70
2022/12/14 10:55:52;;;;;;;;;;;24.40;26.10;;;;;;5110027;27;20014;-68
2022/12/14 10:58:17;;;;;;;;;;;24.30;26.20;;;;;;5121634;27;19980;-69
2022/12/14 11:00:43;;;;;;;;;;;24.20;26.40;;;;;;5112547;27;20275;-72
2022/12/14 11:03:12;;;;;;;;;;;24.30;26.50;;;;;;5132200;27;20031;-72
2022/12/14 11:05:40;;;;;;;;;;;24.20;26.20;;;;;;5116068;27;20018;-71
2022/12/14 11:08:06;;;;;;;;;;;24.00;26.10;;;;;;5119544;27;20042;-68
2022/12/14 11:10:33;;;;;;;;;;;23.90;26.40;;;;;;5135513;27;19928;-69
2022/12/14 11:15:41;;;;;;;;;;;23.90;26.50;;;;;;5069460;28;19967;-71
2022/12/14 11:20:56;;;;;;;;;;;24.50;26.50;;;;;;5078096;27;19920;-70
2022/12/14 11:23:34;;;;;;;;;;;24.90;26.20;;;;;;5076201;28;19956;-71
2022/12/14 11:26:01;;;;;;;;;;;25.30;26.00;;;;;;5055639;28;20033;-70
2022/12/14 11:28:28;;;;;;;;;;;25.60;25.80;;;;;;5054744;28;19920;-73
2022/12/14 11:30:59;;;;;;;;;;;25.70;25.70;;;;;;5051495;28;19964;-73
2022/12/14 11:33:30;;;;;;;;;;;25.70;25.60;;;;;;5071299;28;19924;-68
2022/12/14 11:35:56;;;;;;;;;;;25.60;25.60;;;;;;5057642;28;19955;-69
2022/12/14 11:38:22;;;;;;;;;;;25.20;25.70;;;;;;5077145;28;19931;-69
2022/12/14 11:40:47;;;;;;;;;;;24.60;25.80;;;;;;5054345;28;19977;-67
2022/12/14 11:43:22;;;;;;;;;;;24.30;26.00;;;;;;5059835;28;20562;-68
2022/12/14 11:45:49;;;;;;;;;;;24.00;26.10;;;;;;5079441;28;20378;-68
2022/12/14 11:50:54;;;;;;;;;;;23.50;26.20;;;;;;5095362;27;1860732;-67
2022/12/14 11:53:21;;;;;;;;;;;23.40;26.30;;;;;;5123780;27;20430;-68
2022/12/14 11:55:49;;;;;;;;;;;23.30;26.40;;;;;;5120988;27;19927;-68
2022/12/14 11:58:17;;;;;;;;;;;23.30;26.30;;;;;;5116046;27;19973;-67
2022/12/14 12:03:29;;;;;;;;;;;23.50;26.30;;;;;;5092324;27;19927;-71
2022/12/14 12:05:59;;;;;;;;;;;23.50;26.30;;;;;;5072418;28;20681;-69
2022/12/14 12:08:27;;;;;;;;;;;23.90;26.30;;;;;;5103144;27;19924;-69
2022/12/14 12:10:55;;;;;;;;;;;24.40;26.00;;;;;;5076143;28;19927;-66
2022/12/14 12:21:29;;;;;;;;;;;24.60;25.90;;;;;;5093047;27;1862576;-71
2022/12/14 12:24:01;;;;;;;;;;;25.00;25.60;;;;;;5138871;27;19959;-70
2022/12/14 12:26:29;;;;;;;;;;;25.30;25.50;;;;;;5136893;27;19919;-70
2022/12/14 12:28:58;;;;;;;;;;;25.60;25.30;;;;;;5149737;27;19930;-73
2022/12/14 12:31:30;;;;;;;;;;;25.80;25.20;;;;;;5135263;27;19930;-74
2022/12/14 12:33:58;;;;;;;;;;;25.80;25.10;;;;;;5135447;27;19988;-75
2022/12/14 12:36:24;;;;;;;;;;;25.70;25.10;;;;;;5136619;27;19972;-66
2022/12/14 12:38:57;;;;;;;;;;;25.70;25.20;;;;;;5137386;27;20596;-66
2022/12/14 12:41:27;;;;;;;;;;;25.30;25.00;;;;;;5134266;27;19931;-72
2022/12/14 12:43:57;;;;;;;;;;;24.70;25.20;;;;;;5134142;27;19928;-70
2022/12/14 12:46:33;;;;;;;;;;;24.20;25.80;;;;;;5134757;27;20000;-71
2022/12/14 12:49:03;;;;;;;;;;;24.00;26.00;;;;;;5135639;27;20302;-67
2022/12/14 12:51:32;;;;;;;;;;;23.90;26.00;;;;;;5155343;27;19958;-68
2022/12/14 12:54:00;;;;;;;;;;;23.70;26.20;;;;;;5156222;27;20259;-67
2022/12/14 12:59:12;;;;;;;;;;;23.80;26.40;;;;;;5077440;28;19913;-70
2022/12/14 13:01:40;;;;;;;;;;;24.00;26.20;;;;;;5062166;28;19928;-71
2022/12/14 13:04:10;;;;;;;;;;;24.20;26.10;;;;;;5051368;28;19970;-64
2022/12/14 13:06:40;;;;;;;;;;;24.20;25.80;;;;;;5056619;28;19924;-71
2022/12/14 13:09:25;;;;;;;;;;;24.30;25.90;;;;;;5059562;28;19929;-71
2022/12/14 13:11:51;;;;;;;;;;;24.40;25.90;;;;;;5060889;28;19927;-73
2022/12/14 13:14:23;;;;;;;;;;;24.40;25.80;;;;;;5061047;28;19936;-71
2022/12/14 13:16:49;;;;;;;;;;;24.50;25.90;;;;;;5063286;28;20468;-71
2022/12/14 13:19:21;;;;;;;;;;;24.90;25.70;;;;;;5058781;28;19966;-76
2022/12/14 13:21:48;;;;;;;;;;;25.20;25.50;;;;;;5056956;28;19920;-75
2022/12/14 13:24:15;;;;;;;;;;;25.50;25.30;;;;;;5070215;28;19921;-71
2022/12/14 13:29:37;;;;;;;;;;;25.70;24.80;;;;;;5076815;28;19919;-71
2022/12/14 13:35:18;;;;;;;;;;;25.00;25.10;;;;;;5075550;28;20388;-71
2022/12/14 13:40:33;;;;;;;;;;;24.60;25.70;;;;;;5080558;27;19920;-70
2022/12/14 13:45:42;;;;;;;;;;;24.40;25.70;;;;;;5070062;28;19912;-70
2022/12/14 13:48:17;;;;;;;;;;;24.20;25.90;;;;;;5065889;28;20007;-65
2022/12/14 13:50:42;;;;;;;;;;;24.00;26.10;;;;;;5065167;28;20542;-71
2022/12/14 13:53:14;;;;;;;;;;;23.70;26.30;;;;;;5065061;28;19920;-70
2022/12/14 13:55:47;;;;;;;;;;;23.60;26.50;;;;;;5066874;28;19921;-72
2022/12/14 14:00:55;;;;;;;;;;;23.80;26.70;;;;;;5087351;28;19934;-74
2022/12/14 14:09:01;;;;;;;;;;;24.70;25.40;;;;;;5086268;28;20415;-74
2022/12/14 14:14:14;;;;;;;;;;;24.10;25.90;;;;;;5118940;27;1867935;-66
2022/12/14 14:16:42;;;;;;;;;;;23.70;26.20;;;;;;5149878;27;19923;-74
2022/12/14 14:21:58;;;;;;;;;;;23.40;26.60;;;;;;5123894;27;1867209;-65
2022/12/14 14:24:25;;;;;;;;;;;23.40;26.80;;;;;;5170112;27;19919;-65
2022/12/14 14:29:46;;;;;;;;;;;23.30;27.00;;;;;;5106130;27;19941;-74
2022/12/14 14:32:32;;;;;;;;;;;23.20;27.00;;;;;;5088692;28;19920;-74
2022/12/14 14:34:58;;;;;;;;;;;23.20;27.10;;;;;;5089233;28;19924;-66
2022/12/14 14:42:48;;;;;;;;;;;23.10;27.20;;;;;;5107806;27;19923;-74
2022/12/14 14:45:27;;;;;;;;;;;23.20;27.20;;;;;;5106116;28;20470;-74
2022/12/14 14:47:55;;;;;;;;;;;23.20;27.20;;;;;;5092699;28;19920;-73
2022/12/14 14:50:24;;;;;;;;;;;23.10;27.30;;;;;;5085996;28;19926;-74
2022/12/14 14:52:57;;;;;;;;;;;23.10;27.30;;;;;;5084387;28;20003;-66
2022/12/14 15:00:53;;;;;;;;;;;23.10;27.30;;;;;;5092337;27;19940;-66
2022/12/14 15:03:21;;;;;;;;;;;23.20;27.20;;;;;;5086336;28;19943;-74
2022/12/14 15:05:47;;;;;;;;;;;23.10;27.30;;;;;;5086715;28;19920;-70
2022/12/14 15:08:16;;;;;;;;;;;23.20;27.30;;;;;;5112339;28;19926;-71
2022/12/14 15:10:43;;;;;;;;;;;23.30;27.20;;;;;;5106352;28;19954;-70
2022/12/14 15:13:18;;;;;;;;;;;23.40;27.20;;;;;;5110872;28;19920;-70
2022/12/14 15:15:45;;;;;;;;;;;23.60;27.10;;;;;;5125108;28;19980;-65
2022/12/14 15:18:29;;;;;;;;;;;23.90;26.90;;;;;;5126623;28;19995;-66
2022/12/14 15:21:03;;;;;;;;;;;24.10;26.80;;;;;;5127395;28;20405;-70
2022/12/14 15:23:33;;;;;;;;;;;24.20;26.50;;;;;;5126899;28;19934;-71
2022/12/14 15:26:00;;;;;;;;;;;24.40;26.50;;;;;;5118567;27;19920;-70
2022/12/14 15:28:27;;;;;;;;;;;24.40;26.20;;;;;;5106101;28;19920;-70
2022/12/14 15:30:55;;;;;;;;;;;24.30;26.20;;;;;;5106798;28;19920;-71
2022/12/14 15:33:25;;;;;;;;;;;24.30;26.20;;;;;;5108805;28;19920;-70
2022/12/14 15:35:50;;;;;;;;;;;24.20;26.30;;;;;;5108941;28;19919;-71
2022/12/14 15:40:57;;;;;;;;;;;24.30;26.40;;;;;;5130476;27;1858557;-71
2022/12/14 15:43:24;;;;;;;;;;;24.70;26.10;;;;;;5172759;27;19922;-72
2022/12/14 15:45:52;;;;;;;;;;;24.90;25.80;;;;;;5173717;27;19923;-71
2022/12/14 15:51:04;;;;;;;;;;;25.20;25.40;;;;;;5109120;27;19912;-71
2022/12/14 15:53:31;;;;;;;;;;;25.20;25.40;;;;;;5107886;28;19959;-71
2022/12/14 15:55:58;;;;;;;;;;;25.10;25.30;;;;;;5091660;28;20014;-71
2022/12/14 16:01:09;;;;;;;;;;;24.90;25.50;;;;;;5089491;28;19912;-71
2022/12/14 16:03:36;;;;;;;;;;;24.60;25.60;;;;;;5087782;28;19920;-71
2022/12/14 16:06:02;;;;;;;;;;;24.40;25.80;;;;;;5087643;28;19926;-71
2022/12/14 16:08:29;;;;;;;;;;;24.20;25.90;;;;;;5089250;28;20295;-71
2022/12/14 16:10:56;;;;;;;;;;;24.00;26.10;;;;;;5087633;28;19928;-71
2022/12/14 16:13:24;;;;;;;;;;;23.70;26.10;;;;;;5088800;28;19966;-71
2022/12/14 16:15:49;;;;;;;;;;;23.60;26.30;;;;;;5088409;28;19924;-71
2022/12/14 16:18:16;;;;;;;;;;;23.40;26.40;;;;;;5088491;28;19946;-71
2022/12/14 16:20:43;;;;;;;;;;;23.20;26.50;;;;;;5105253;28;19924;-71
2022/12/14 16:25:57;;;;;;;;;;;22.90;26.60;;;;;;5089452;28;19938;-71
2022/12/14 16:28:26;;;;;;;;;;;22.90;26.70;;;;;;5088474;28;20374;-71
2022/12/14 16:30:53;;;;;;;;;;;23.00;26.70;;;;;;5087799;28;19921;-71
2022/12/14 16:33:19;;;;;;;;;;;23.20;26.60;;;;;;5087492;28;19921;-71
2022/12/14 16:35:46;;;;;;;;;;;23.40;26.40;;;;;;5088297;28;20458;-71
2022/12/14 16:38:14;;;;;;;;;;;23.60;26.20;;;;;;5088743;28;20273;-71
2022/12/14 16:40:41;;;;;;;;;;;23.80;26.00;;;;;;5088488;28;20291;-71
2022/12/14 16:43:22;;;;;;;;;;;24.00;25.90;;;;;;5088059;28;19970;-71
2022/12/14 16:48:45;;;;;;;;;;;24.50;25.40;;;;;;5089551;28;20372;-71
2022/12/14 16:53:58;;;;;;;;;;;24.90;25.00;;;;;;5109286;27;20296;-71
2022/12/14 16:56:25;;;;;;;;;;;25.10;24.90;;;;;;5092012;28;19927;-71